Time,TemperatureF,DewpointF,PressureIn,WindDirection,WindDirectionDegrees,WindSpeedMPH,WindSpeedGustMPH,Humidity,HourlyPrecipIn,Conditions,Clouds,dailyrainin,SoftwareType,DateUTC
2013-02-01 00:02:00,-2.6,-18.6,29.23,SW,220,4.0,6.3,45,0.00,,CLR,0.00,VWS V14.00,2013-02-01 06:02:00,
2013-02-01 00:07:00,-2.2,-18.3,29.23,SW,227,3.1,8.3,45,0.00,,CLR,0.00,VWS V14.00,2013-02-01 06:07:00,
2013-02-01 00:12:00,-2.4,-18.5,29.23,SW,225,4.0,8.1,45,0.00,,CLR,0.00,VWS V14.00,2013-02-01 06:12:00,
2013-02-01 00:17:00,-2.7,-18.8,29.23,SSW,205,0.0,8.3,45,0.00,,CLR,0.00,VWS V14.00,2013-02-01 06:17:00,
2013-02-01 00:22:00,-2.4,-18.5,29.23,SSW,205,6.3,10.5,45,0.00,,CLR,0.00,VWS V14.00,2013-02-01 06:22:00,
2013-02-01 00:27:00,-2.6,-18.6,29.23,SSE,161,3.6,14.5,45,0.00,,CLR,0.00,VWS V14.00,2013-02-01 06:27:00,
2013-02-01 00:32:00,-2.6,-18.6,29.23,SSW,213,5.4,8.3,45,0.00,,CLR,0.00,VWS V14.00,2013-02-01 06:32:00,
2013-02-01 00:37:00,-2.7,-18.8,29.23,SW,233,3.6,8.3,45,0.00,,CLR,0.00,VWS V14.00,2013-02-01 06:37:00,
2013-02-01 00:42:00,-2.7,-18.8,29.23,SW,226,9.6,9.6,45,0.00,,CLR,0.00,VWS V14.00,2013-02-01 06:42:00,
2013-02-01 00:47:00,-2.9,-19.0,29.23,SW,216,6.3,9.6,45,0.00,,CLR,0.00,VWS V14.00,2013-02-01 06:47:00,
2013-02-01 00:52:00,-3.3,-19.3,29.23,SW,233,0.0,6.3,45,0.00,,CLR,0.00,VWS V14.00,2013-02-01 06:52:00,
2013-02-01 00:57:00,-3.1,-19.1,29.23,SSW,205,4.9,10.5,45,0.00,,CLR,0.00,VWS V14.00,2013-02-01 06:57:00,
2013-02-01 01:02:00,-3.1,-19.1,29.23,SSW,200,8.1,9.6,45,0.00,,CLR,0.00,VWS V14.00,2013-02-01 07:02:00,
2013-02-01 01:07:00,-2.9,-19.0,29.23,SW,234,4.0,9.6,45,0.00,,CLR,0.00,VWS V14.00,2013-02-01 07:07:00,
2013-02-01 01:12:00,-3.1,-19.1,29.23,SSW,193,6.3,10.1,45,0.00,,CLR,0.00,VWS V14.00,2013-02-01 07:12:00,
2013-02-01 01:17:00,-3.1,-19.1,29.23,SSW,200,6.3,10.1,45,0.00,,CLR,0.00,VWS V14.00,2013-02-01 07:17:00,
2013-02-01 01:22:00,-3.5,-19.5,29.23,SSW,212,3.1,5.8,45,0.00,,CLR,0.00,VWS V14.00,2013-02-01 07:22:00,
2013-02-01 01:27:00,-3.3,-19.3,29.23,SSW,209,7.6,8.7,45,0.00,,CLR,0.00,VWS V14.00,2013-02-01 07:27:00,
2013-02-01 01:32:00,-3.5,-19.5,29.23,SSW,205,5.4,8.3,45,0.00,,CLR,0.00,VWS V14.00,2013-02-01 07:32:00,
2013-02-01 01:37:00,-3.3,-19.3,29.23,SW,229,2.2,11.4,45,0.00,,CLR,0.00,VWS V14.00,2013-02-01 07:37:00,
2013-02-01 01:42:00,-3.5,-19.5,29.23,SSW,204,5.8,5.8,45,0.00,,CLR,0.00,VWS V14.00,2013-02-01 07:42:00,
2013-02-01 01:47:00,-3.5,-19.5,29.23,SW,232,5.4,11.0,45,0.00,,CLR,0.00,VWS V14.00,2013-02-01 07:47:00,
2013-02-01 01:52:00,-3.6,-19.6,29.23,West,261,5.4,7.6,45,0.00,,CLR,0.00,VWS V14.00,2013-02-01 07:52:00,
2013-02-01 01:57:00,-3.6,-19.6,29.23,WSW,241,6.7,10.1,45,0.00,,CLR,0.00,VWS V14.00,2013-02-01 07:57:00,
2013-02-01 02:02:00,-4.0,-20.0,29.23,SW,219,2.7,6.3,45,0.00,,CLR,0.00,VWS V14.00,2013-02-01 08:02:00,
2013-02-01 02:07:00,-4.4,-20.3,29.23,SSW,205,3.6,7.6,45,0.00,,CLR,0.00,VWS V14.00,2013-02-01 08:07:00,
2013-02-01 02:12:00,-3.8,-19.8,29.23,SSW,198,5.8,8.3,45,0.00,,CLR,0.00,VWS V14.00,2013-02-01 08:12:00,
2013-02-01 02:17:00,-4.0,-20.0,29.23,SW,225,4.0,8.7,45,0.00,,CLR,0.00,VWS V14.00,2013-02-01 08:17:00,
2013-02-01 02:22:00,-4.2,-20.1,29.23,SSW,212,2.7,8.3,45,0.00,,CLR,0.00,VWS V14.00,2013-02-01 08:22:00,
2013-02-01 02:27:00,-3.8,-19.8,29.23,South,188,3.6,8.3,45,0.00,,CLR,0.00,VWS V14.00,2013-02-01 08:27:00,
2013-02-01 02:32:00,-3.6,-19.6,29.23,SSW,198,8.7,11.9,45,0.00,,CLR,0.00,VWS V14.00,2013-02-01 08:32:00,
2013-02-01 02:37:00,-3.8,-19.8,29.23,South,178,3.6,11.9,45,0.00,,CLR,0.00,VWS V14.00,2013-02-01 08:37:00,
2013-02-01 02:42:00,-4.2,-20.1,29.23,SW,224,3.6,8.3,45,0.00,,CLR,0.00,VWS V14.00,2013-02-01 08:42:00,
2013-02-01 02:47:00,-4.2,-20.1,29.23,SSW,213,5.4,8.3,45,0.00,,CLR,0.00,VWS V14.00,2013-02-01 08:47:00,
2013-02-01 02:52:00,-4.5,-20.5,29.23,SSW,213,5.4,5.4,45,0.00,,CLR,0.00,VWS V14.00,2013-02-01 08:52:00,
2013-02-01 02:57:00,-4.9,-20.8,29.23,SW,222,0.0,5.8,45,0.00,,CLR,0.00,VWS V14.00,2013-02-01 08:57:00,
2013-02-01 03:02:00,-4.7,-20.6,29.23,SSW,200,0.0,8.3,45,0.00,,CLR,0.00,VWS V14.00,2013-02-01 09:02:00,
2013-02-01 03:07:00,-5.1,-21.0,29.23,SW,214,2.7,8.3,45,0.00,,CLR,0.00,VWS V14.00,2013-02-01 09:07:00,
2013-02-01 03:12:00,-5.3,-21.1,29.23,SSW,199,4.9,4.9,45,0.00,,CLR,0.00,VWS V14.00,2013-02-01 09:12:00,
2013-02-01 03:17:00,-5.1,-21.0,29.23,SSW,199,0.0,5.4,45,0.00,,CLR,0.00,VWS V14.00,2013-02-01 09:17:00,
2013-02-01 03:22:00,-6.0,-21.8,29.23,SSW,193,0.0,3.1,45,0.00,,CLR,0.00,VWS V14.00,2013-02-01 09:22:00,
2013-02-01 03:27:00,-6.0,-21.8,29.26,SSW,203,3.1,5.8,45,0.00,,CLR,0.00,VWS V14.00,2013-02-01 09:27:00,
2013-02-01 03:32:00,-6.0,-21.8,29.26,SSW,193,2.7,2.7,45,0.00,,CLR,0.00,VWS V14.00,2013-02-01 09:32:00,
2013-02-01 03:37:00,-5.8,-21.6,29.26,SSW,192,0.0,5.4,45,0.00,,CLR,0.00,VWS V14.00,2013-02-01 09:37:00,
2013-02-01 03:42:00,-5.8,-21.6,29.23,South,190,0.0,3.6,45,0.00,,CLR,0.00,VWS V14.00,2013-02-01 09:42:00,
2013-02-01 03:47:00,-6.3,-22.1,29.23,SSW,195,0.0,3.6,45,0.00,,CLR,0.00,VWS V14.00,2013-02-01 09:47:00,
2013-02-01 03:52:00,-6.9,-22.6,29.23,South,190,0.0,3.1,45,0.00,,CLR,0.00,VWS V14.00,2013-02-01 09:52:00,
2013-02-01 03:57:00,-7.2,-23.0,29.23,South,190,0.0,3.1,45,0.00,,CLR,0.00,VWS V14.00,2013-02-01 09:57:00,
2013-02-01 04:02:00,-7.6,-23.3,29.23,South,190,0.0,0.0,45,0.00,,CLR,0.00,VWS V14.00,2013-02-01 10:02:00,
2013-02-01 04:07:00,-7.6,-23.3,29.23,South,190,0.0,3.1,45,0.00,,CLR,0.00,VWS V14.00,2013-02-01 10:07:00,
2013-02-01 04:12:00,-7.1,-22.8,29.26,South,190,0.0,0.0,45,0.00,,CLR,0.00,VWS V14.00,2013-02-01 10:12:00,
2013-02-01 04:17:00,-7.4,-23.1,29.26,South,190,0.0,0.0,45,0.00,,CLR,0.00,VWS V14.00,2013-02-01 10:17:00,
2013-02-01 04:22:00,-6.9,-22.6,29.26,South,182,3.6,3.6,45,0.00,,CLR,0.00,VWS V14.00,2013-02-01 10:22:00,
2013-02-01 04:27:00,-6.9,-22.6,29.23,South,189,3.1,4.0,45,0.00,,CLR,0.00,VWS V14.00,2013-02-01 10:27:00,
2013-02-01 04:32:00,-6.9,-22.6,29.23,SSW,205,0.0,3.1,45,0.00,,CLR,0.00,VWS V14.00,2013-02-01 10:32:00,
2013-02-01 04:37:00,-6.0,-21.8,29.23,SSW,212,0.0,6.3,45,0.00,,CLR,0.00,VWS V14.00,2013-02-01 10:37:00,
2013-02-01 04:42:00,-6.3,-22.1,29.23,SSW,194,0.0,3.1,45,0.00,,CLR,0.00,VWS V14.00,2013-02-01 10:42:00,
2013-02-01 04:47:00,-6.3,-22.1,29.23,SSW,195,2.7,6.3,45,0.00,,CLR,0.00,VWS V14.00,2013-02-01 10:47:00,
2013-02-01 04:52:00,-6.0,-21.8,29.23,SSW,207,6.3,6.3,45,0.00,,CLR,0.00,VWS V14.00,2013-02-01 10:52:00,
2013-02-01 04:57:00,-6.0,-21.8,29.23,SSW,210,0.0,6.3,45,0.00,,CLR,0.00,VWS V14.00,2013-02-01 10:57:00,
2013-02-01 05:02:00,-6.3,-22.1,29.23,South,177,0.0,3.6,45,0.00,,CLR,0.00,VWS V14.00,2013-02-01 11:02:00,
2013-02-01 05:07:00,-6.5,-22.3,29.23,SSW,203,0.0,4.9,45,0.00,,CLR,0.00,VWS V14.00,2013-02-01 11:07:00,
2013-02-01 05:12:00,-6.3,-22.1,29.23,SW,232,0.0,5.4,45,0.00,,CLR,0.00,VWS V14.00,2013-02-01 11:12:00,
2013-02-01 05:17:00,-6.5,-22.3,29.23,SW,223,0.0,5.4,45,0.00,,CLR,0.00,VWS V14.00,2013-02-01 11:17:00,
2013-02-01 05:22:00,-7.1,-22.8,29.23,SW,223,0.0,3.6,45,0.00,,CLR,0.00,VWS V14.00,2013-02-01 11:22:00,
2013-02-01 05:27:00,-6.3,-22.1,29.23,SW,232,0.0,4.0,45,0.00,,CLR,0.00,VWS V14.00,2013-02-01 11:27:00,
2013-02-01 05:32:00,-6.2,-22.0,29.23,SW,215,2.2,4.0,45,0.00,,CLR,0.00,VWS V14.00,2013-02-01 11:32:00,
2013-02-01 05:37:00,-6.7,-22.5,29.23,SW,220,2.7,4.0,45,0.00,,CLR,0.00,VWS V14.00,2013-02-01 11:37:00,
2013-02-01 05:42:00,-6.3,-22.1,29.23,SSW,212,0.0,5.8,45,0.00,,CLR,0.00,VWS V14.00,2013-02-01 11:42:00,
2013-02-01 05:47:00,-6.7,-22.5,29.23,SSW,197,2.2,5.8,45,0.00,,CLR,0.00,VWS V14.00,2013-02-01 11:47:00,
2013-02-01 05:52:00,-7.2,-23.0,29.23,SW,217,0.0,0.0,45,0.00,,CLR,0.00,VWS V14.00,2013-02-01 11:52:00,
2013-02-01 05:57:00,-7.8,-23.5,29.23,SW,217,0.0,0.0,45,0.00,,CLR,0.00,VWS V14.00,2013-02-01 11:57:00,
2013-02-01 06:02:00,-7.2,-23.0,29.23,SW,219,0.0,3.6,45,0.00,,CLR,0.00,VWS V14.00,2013-02-01 12:02:00,
2013-02-01 06:07:00,-7.1,-22.8,29.23,SW,219,2.2,3.6,45,0.00,,CLR,0.00,VWS V14.00,2013-02-01 12:07:00,
2013-02-01 06:12:00,-7.4,-23.1,29.21,WNW,283,0.0,4.0,45,0.00,,CLR,0.00,VWS V14.00,2013-02-01 12:12:00,
2013-02-01 06:17:00,-7.2,-23.0,29.21,WSW,256,0.0,4.0,45,0.00,,CLR,0.00,VWS V14.00,2013-02-01 12:17:00,
2013-02-01 06:22:00,-6.9,-22.6,29.21,WSW,246,5.4,5.4,45,0.00,,CLR,0.00,VWS V14.00,2013-02-01 12:22:00,
2013-02-01 06:27:00,-6.9,-22.6,29.21,West,278,0.0,5.4,45,0.00,,CLR,0.00,VWS V14.00,2013-02-01 12:27:00,
2013-02-01 06:32:00,-6.5,-22.3,29.21,SW,223,0.0,4.9,45,0.00,,CLR,0.00,VWS V14.00,2013-02-01 12:32:00,
2013-02-01 06:37:00,-6.9,-22.6,29.21,SW,222,0.0,4.9,45,0.00,,CLR,0.00,VWS V14.00,2013-02-01 12:37:00,
2013-02-01 06:42:00,-6.5,-22.3,29.21,SW,221,3.6,3.6,45,0.00,,CLR,0.00,VWS V14.00,2013-02-01 12:42:00,
2013-02-01 06:47:00,-7.4,-23.1,29.21,SW,222,0.0,3.6,45,0.00,,CLR,0.00,VWS V14.00,2013-02-01 12:47:00,
2013-02-01 06:52:00,-8.0,-23.6,29.21,SW,221,0.0,0.0,45,0.00,,CLR,0.00,VWS V14.00,2013-02-01 12:52:00,
2013-02-01 06:57:00,-8.7,-24.3,29.23,SW,221,0.0,0.0,45,0.00,,CLR,0.00,VWS V14.00,2013-02-01 12:57:00,
2013-02-01 07:02:00,-9.0,-24.6,29.23,SW,221,0.0,0.0,45,0.00,,CLR,0.00,VWS V14.00,2013-02-01 13:02:00,
2013-02-01 07:07:00,-9.4,-25.0,29.23,SW,221,0.0,0.0,45,0.00,,CLR,0.00,VWS V14.00,2013-02-01 13:07:00,
2013-02-01 07:12:00,-9.6,-25.1,29.23,SW,221,0.0,0.0,45,0.00,,CLR,0.00,VWS V14.00,2013-02-01 13:12:00,
2013-02-01 07:17:00,-9.8,-25.3,29.23,SW,221,0.0,0.0,45,0.00,,CLR,0.00,VWS V14.00,2013-02-01 13:17:00,
2013-02-01 07:22:00,-9.6,-25.1,29.23,SW,221,0.0,0.0,45,0.00,,CLR,0.00,VWS V14.00,2013-02-01 13:22:00,
2013-02-01 07:27:00,-9.6,-25.1,29.23,SW,221,0.0,0.0,45,0.00,,CLR,0.00,VWS V14.00,2013-02-01 13:27:00,
2013-02-01 07:32:00,-9.4,-25.0,29.23,SW,221,0.0,0.0,45,0.00,,CLR,0.00,VWS V14.00,2013-02-01 13:32:00,
2013-02-01 07:37:00,-8.7,-24.3,29.23,SW,221,3.6,3.6,45,0.00,,CLR,0.00,VWS V14.00,2013-02-01 13:37:00,
2013-02-01 07:42:00,-8.0,-23.6,29.23,SSE,165,4.0,4.0,45,0.00,,CLR,0.00,VWS V14.00,2013-02-01 13:42:00,
2013-02-01 07:47:00,-7.1,-22.8,29.23,SE,138,0.0,5.4,45,0.00,,CLR,0.00,VWS V14.00,2013-02-01 13:47:00,
2013-02-01 07:52:00,-6.3,-22.1,29.23,SE,138,2.7,2.7,45,0.00,,CLR,0.00,VWS V14.00,2013-02-01 13:52:00,
2013-02-01 07:57:00,-5.4,-21.3,29.23,SE,146,0.0,5.8,45,0.00,,CLR,0.00,VWS V14.00,2013-02-01 13:57:00,
2013-02-01 08:02:00,-5.1,-21.0,29.23,SE,146,0.0,0.0,45,0.00,,FEW220,0.00,VWS V14.00,2013-02-01 14:02:00,
2013-02-01 08:07:00,-4.4,-20.3,29.23,SE,145,4.0,4.9,45,0.00,,FEW220,0.00,VWS V14.00,2013-02-01 14:07:00,
2013-02-01 08:12:00,-3.3,-19.3,29.23,SE,145,0.0,0.0,45,0.00,,FEW220,0.00,VWS V14.00,2013-02-01 14:12:00,
2013-02-01 08:17:00,-2.9,-19.0,29.23,SE,145,0.0,4.0,45,0.00,,FEW220,0.00,VWS V14.00,2013-02-01 14:17:00,
2013-02-01 08:22:00,-2.4,-18.5,29.23,SE,145,3.1,3.1,45,0.00,,FEW220,0.00,VWS V14.00,2013-02-01 14:22:00,
2013-02-01 08:27:00,-1.3,-17.5,29.23,SSE,167,3.1,4.0,45,0.00,,FEW220,0.00,VWS V14.00,2013-02-01 14:27:00,
2013-02-01 08:32:00,-0.6,-16.8,29.23,SE,132,0.0,4.9,45,0.00,,FEW220,0.00,VWS V14.00,2013-02-01 14:32:00,
2013-02-01 08:37:00,-0.8,-17.0,29.23,SSE,156,3.6,4.9,45,0.00,,FEW220,0.00,VWS V14.00,2013-02-01 14:37:00,
2013-02-01 08:42:00,-0.4,-16.7,29.23,South,182,0.0,3.6,45,0.00,,FEW220,0.00,VWS V14.00,2013-02-01 14:42:00,
2013-02-01 08:47:00,0.3,-16.0,29.23,SSE,156,6.3,6.3,45,0.00,,FEW220,0.00,VWS V14.00,2013-02-01 14:47:00,
2013-02-01 08:52:00,0.7,-15.7,29.23,SSE,151,2.7,4.0,45,0.00,,FEW220,0.00,VWS V14.00,2013-02-01 14:52:00,
2013-02-01 08:57:00,1.6,-14.8,29.23,SE,145,4.0,6.3,45,0.00,,FEW220,0.00,VWS V14.00,2013-02-01 14:57:00,
2013-02-01 09:02:00,2.5,-14.0,29.23,SSE,150,0.0,2.2,45,0.00,,FEW220,0.00,VWS V14.00,2013-02-01 15:02:00,
2013-02-01 09:07:00,3.2,-13.3,29.23,SE,132,5.4,5.4,45,0.00,,FEW220,0.00,VWS V14.00,2013-02-01 15:07:00,
2013-02-01 09:12:00,3.7,-12.9,29.23,SE,146,3.6,5.8,45,0.00,,FEW220,0.00,VWS V14.00,2013-02-01 15:12:00,
2013-02-01 09:17:00,3.9,-12.7,29.23,SE,146,0.0,5.8,45,0.00,,FEW220,0.00,VWS V14.00,2013-02-01 15:17:00,
2013-02-01 09:22:00,5.0,-11.7,29.23,SE,143,4.9,4.9,45,0.00,,FEW220,0.00,VWS V14.00,2013-02-01 15:22:00,
2013-02-01 09:27:00,6.4,-10.4,29.23,SE,144,0.0,4.9,45,0.00,,FEW220,0.00,VWS V14.00,2013-02-01 15:27:00,
2013-02-01 09:32:00,3.7,-12.9,29.23,SW,218,4.9,5.4,45,0.00,,FEW220,0.00,VWS V14.00,2013-02-01 15:32:00,
2013-02-01 09:37:00,6.3,-10.5,29.23,SE,142,2.7,5.4,45,0.00,,FEW220,0.00,VWS V14.00,2013-02-01 15:37:00,
2013-02-01 09:42:00,5.4,-11.4,29.23,SW,229,0.0,3.6,45,0.00,,FEW220,0.00,VWS V14.00,2013-02-01 15:42:00,
2013-02-01 09:47:00,6.1,-10.7,29.23,SE,143,0.0,4.0,45,0.00,,FEW220,0.00,VWS V14.00,2013-02-01 15:47:00,
2013-02-01 09:52:00,7.0,-9.9,29.23,SE,136,2.7,3.6,45,0.00,,FEW220,0.00,VWS V14.00,2013-02-01 15:52:00,
2013-02-01 09:57:00,7.5,-9.4,29.23,SSE,164,2.2,3.6,45,0.00,,FEW220,0.00,VWS V14.00,2013-02-01 15:57:00,
2013-02-01 10:02:00,7.7,-9.2,29.23,South,175,0.0,0.0,45,0.00,,OVC060,0.00,VWS V14.00,2013-02-01 16:02:00,
2013-02-01 10:07:00,7.9,-9.0,29.23,SSE,150,3.6,5.4,45,0.00,,OVC060,0.00,VWS V14.00,2013-02-01 16:07:00,
2013-02-01 10:12:00,7.5,-9.4,29.23,SE,124,4.0,4.9,45,0.00,,OVC060,0.00,VWS V14.00,2013-02-01 16:12:00,
2013-02-01 10:17:00,8.1,-8.9,29.23,SE,143,4.0,4.9,45,0.00,,OVC060,0.00,VWS V14.00,2013-02-01 16:17:00,
2013-02-01 10:22:00,8.4,-8.5,29.23,SSE,148,2.7,3.6,45,0.00,,OVC060,0.00,VWS V14.00,2013-02-01 16:22:00,
2013-02-01 10:27:00,8.1,-8.9,29.23,SE,128,4.0,4.0,45,0.00,,OVC060,0.00,VWS V14.00,2013-02-01 16:27:00,
2013-02-01 10:32:00,9.5,-7.6,29.23,SE,127,3.6,5.4,45,0.00,,OVC060,0.00,VWS V14.00,2013-02-01 16:32:00,
2013-02-01 10:37:00,10.0,-7.1,29.23,ESE,105,3.1,5.4,45,0.00,,OVC060,0.00,VWS V14.00,2013-02-01 16:37:00,
2013-02-01 10:42:00,9.5,-7.6,29.21,ESE,116,4.9,5.8,45,0.00,,OVC060,0.00,VWS V14.00,2013-02-01 16:42:00,
2013-02-01 10:47:00,9.7,-7.4,29.21,SSE,154,4.5,5.8,45,0.00,,OVC060,0.00,VWS V14.00,2013-02-01 16:47:00,
2013-02-01 10:52:00,9.7,-7.4,29.21,SSE,149,2.7,4.9,45,0.00,,OVC060,0.00,VWS V14.00,2013-02-01 16:52:00,
2013-02-01 10:57:00,10.2,-6.9,29.21,SE,137,4.9,5.4,45,0.00,,OVC060,0.00,VWS V14.00,2013-02-01 16:57:00,
2013-02-01 11:02:00,10.9,-6.2,29.21,SSE,151,4.0,6.3,45,0.00,,OVC065,0.00,VWS V14.00,2013-02-01 17:02:00,
2013-02-01 11:07:00,11.1,-6.1,29.21,SE,137,6.3,6.3,45,0.00,,OVC065,0.00,VWS V14.00,2013-02-01 17:07:00,
2013-02-01 11:12:00,11.7,-5.6,29.21,SE,125,2.7,4.0,45,0.00,,OVC065,0.00,VWS V14.00,2013-02-01 17:12:00,
2013-02-01 11:17:00,11.1,-6.1,29.21,ESE,123,4.0,8.1,45,0.00,,OVC065,0.00,VWS V14.00,2013-02-01 17:17:00,
2013-02-01 11:22:00,10.2,-6.9,29.21,East,85,2.7,5.4,45,0.00,,OVC065,0.00,VWS V14.00,2013-02-01 17:22:00,
2013-02-01 11:27:00,11.1,-6.1,29.21,ESE,115,2.7,5.8,45,0.00,,OVC065,0.00,VWS V14.00,2013-02-01 17:27:00,
2013-02-01 11:32:00,12.4,-4.9,29.21,SE,139,0.0,4.0,45,0.00,,OVC065,0.00,VWS V14.00,2013-02-01 17:32:00,
2013-02-01 11:37:00,11.7,-5.6,29.21,SE,132,4.9,7.6,45,0.00,,OVC065,0.00,VWS V14.00,2013-02-01 17:37:00,
2013-02-01 11:41:00,10.4,-6.7,29.21,ESE,120,6.3,6.3,45,0.00,,OVC065,0.00,VWS V14.00,2013-02-01 17:41:00,
2013-02-01 11:46:00,10.6,-6.6,29.21,SE,143,6.3,6.3,45,0.00,,OVC065,0.00,VWS V14.00,2013-02-01 17:46:00,
2013-02-01 11:51:00,9.7,-7.4,29.21,ESE,115,3.1,6.3,45,0.00,,OVC065,0.00,VWS V14.00,2013-02-01 17:51:00,
2013-02-01 11:56:00,9.3,-7.7,29.18,SSE,149,4.9,8.1,45,0.00,,OVC065,0.00,VWS V14.00,2013-02-01 17:56:00,
2013-02-01 12:02:00,9.9,-7.2,29.18,SE,132,3.6,4.0,45,0.00,,OVC065,0.00,VWS V14.00,2013-02-01 18:02:00,
2013-02-01 12:07:00,9.5,-7.6,29.18,East,79,4.0,5.8,45,0.00,,OVC065,0.00,VWS V14.00,2013-02-01 18:07:00,
2013-02-01 12:12:00,10.0,-7.1,29.18,East,86,2.7,5.8,45,0.00,,OVC065,0.00,VWS V14.00,2013-02-01 18:12:00,
2013-02-01 12:17:00,10.0,-7.1,29.18,ESE,118,3.1,7.6,45,0.00,,OVC065,0.00,VWS V14.00,2013-02-01 18:17:00,
2013-02-01 12:22:00,10.4,-6.7,29.18,East,101,4.0,8.7,45,0.00,,OVC065,0.00,VWS V14.00,2013-02-01 18:22:00,
2013-02-01 12:27:00,10.0,-7.1,29.15,ESE,123,6.3,8.7,45,0.00,,OVC065,0.00,VWS V14.00,2013-02-01 18:27:00,
2013-02-01 12:32:00,9.3,-7.7,29.15,ESE,115,4.0,8.3,45,0.00,,OVC065,0.00,VWS V14.00,2013-02-01 18:32:00,
2013-02-01 12:37:00,9.0,-8.1,29.15,ESE,109,5.4,8.3,45,0.00,,OVC065,0.00,VWS V14.00,2013-02-01 18:37:00,
2013-02-01 12:42:00,8.8,-8.2,29.15,ENE,69,7.2,7.2,45,0.00,,OVC065,0.00,VWS V14.00,2013-02-01 18:42:00,
2013-02-01 12:47:00,7.5,-9.4,29.15,NE,55,6.7,8.3,45,0.00,,OVC065,0.00,VWS V14.00,2013-02-01 18:47:00,
2013-02-01 12:52:00,8.1,-8.9,29.15,East,88,4.0,5.4,45,0.00,,OVC065,0.00,VWS V14.00,2013-02-01 18:52:00,
2013-02-01 12:57:00,9.1,-7.9,29.15,ENE,78,3.6,5.4,45,0.00,,OVC065,0.00,VWS V14.00,2013-02-01 18:57:00,
2013-02-01 13:02:00,8.2,-8.7,29.15,ENE,67,3.6,7.6,45,0.00,,OVC060,0.00,VWS V14.00,2013-02-01 19:02:00,
2013-02-01 13:07:00,8.1,-8.9,29.15,ENE,65,5.8,10.1,45,0.00,,OVC060,0.00,VWS V14.00,2013-02-01 19:07:00,
2013-02-01 13:12:00,7.9,-9.0,29.12,ENE,66,4.5,6.3,45,0.00,,OVC060,0.00,VWS V14.00,2013-02-01 19:12:00,
2013-02-01 13:16:00,9.1,-7.9,29.12,ENE,77,3.6,6.3,45,0.00,,OVC060,0.00,VWS V14.00,2013-02-01 19:16:00,
2013-02-01 13:22:00,8.6,-8.4,29.12,NE,49,5.4,8.1,45,0.00,,OVC060,0.00,VWS V14.00,2013-02-01 19:22:00,
2013-02-01 13:27:00,9.0,-8.1,29.12,ENE,75,8.1,9.2,45,0.00,,OVC060,0.00,VWS V14.00,2013-02-01 19:27:00,
2013-02-01 13:32:00,9.1,-7.9,29.12,East,95,5.8,8.1,45,0.00,,OVC060,0.00,VWS V14.00,2013-02-01 19:32:00,
2013-02-01 13:37:00,9.1,-7.9,29.12,East,79,10.1,11.0,45,0.00,,OVC060,0.00,VWS V14.00,2013-02-01 19:37:00,
2013-02-01 13:42:00,8.8,-8.2,29.09,East,84,5.4,8.1,45,0.00,,OVC060,0.00,VWS V14.00,2013-02-01 19:42:00,
2013-02-01 13:47:00,9.1,-7.9,29.09,NE,53,3.1,10.5,45,0.00,,OVC055,0.00,VWS V14.00,2013-02-01 19:47:00,
2013-02-01 13:52:00,9.1,-7.9,29.09,ENE,59,7.6,11.0,45,0.00,,OVC055,0.00,VWS V14.00,2013-02-01 19:52:00,
2013-02-01 13:57:00,10.2,-6.9,29.09,ENE,61,5.4,11.0,45,0.00,,OVC055,0.00,VWS V14.00,2013-02-01 19:57:00,
2013-02-01 14:02:00,11.8,-5.4,29.09,East,82,2.7,5.8,45,0.00,,OVC055,0.00,VWS V14.00,2013-02-01 20:02:00,
2013-02-01 14:06:00,12.2,-5.1,29.09,East,101,4.0,6.3,45,0.00,,OVC055,0.00,VWS V14.00,2013-02-01 20:06:00,
2013-02-01 14:11:00,13.6,-3.8,29.09,East,97,6.3,9.6,45,0.00,,OVC055,0.00,VWS V14.00,2013-02-01 20:11:00,
2013-02-01 14:16:00,13.1,-4.2,29.09,ENE,73,4.0,10.5,45,0.00,,OVC055,0.00,VWS V14.00,2013-02-01 20:16:00,
2013-02-01 14:21:00,13.1,-4.2,29.09,ESE,122,7.6,10.1,45,0.00,,OVC055,0.00,VWS V14.00,2013-02-01 20:21:00,
2013-02-01 14:26:00,13.1,-4.2,29.06,ENE,71,6.3,10.1,45,0.00,,OVC055,0.00,VWS V14.00,2013-02-01 20:26:00,
2013-02-01 14:31:00,14.2,-12.2,29.06,NNE,28,4.0,7.2,29,0.00,,OVC055,0.00,VWS V14.00,2013-02-01 20:31:00,
2013-02-01 14:36:00,14.0,-13.8,29.06,East,100,5.4,10.1,27,0.00,,OVC055,0.00,VWS V14.00,2013-02-01 20:36:00,
2013-02-01 14:41:00,14.2,-12.2,29.09,East,98,4.0,6.3,29,0.00,,OVC055,0.00,VWS V14.00,2013-02-01 20:41:00,
2013-02-01 14:46:00,15.1,-13.6,29.09,East,84,4.9,8.3,26,0.00,,OVC055,0.00,VWS V14.00,2013-02-01 20:46:00,
2013-02-01 14:51:00,15.1,-13.6,29.09,East,101,5.8,8.7,26,0.00,,OVC055,0.00,VWS V14.00,2013-02-01 20:51:00,
2013-02-01 14:56:00,14.7,-13.9,29.06,SE,124,3.1,8.7,26,0.00,,OVC055,0.00,VWS V14.00,2013-02-01 20:56:00,
2013-02-01 15:01:00,14.7,-11.8,29.06,East,94,3.1,5.4,29,0.00,,OVC095,0.00,VWS V14.00,2013-02-01 21:01:00,
2013-02-01 15:06:00,14.9,-11.6,29.06,ESE,123,0.0,6.3,29,0.00,,OVC095,0.00,VWS V14.00,2013-02-01 21:06:00,
2013-02-01 15:11:00,14.2,-12.2,29.06,ENE,64,7.6,11.0,29,0.00,,OVC095,0.00,VWS V14.00,2013-02-01 21:11:00,
2013-02-01 15:16:00,14.4,-12.1,29.06,ESE,110,4.0,11.0,29,0.00,,OVC095,0.00,VWS V14.00,2013-02-01 21:16:00,
2013-02-01 15:21:00,14.9,-11.6,29.06,East,89,2.2,6.3,29,0.00,,OVC095,0.00,VWS V14.00,2013-02-01 21:21:00,
2013-02-01 15:26:00,15.4,-11.1,29.06,East,90,3.6,6.3,29,0.00,,OVC095,0.00,VWS V14.00,2013-02-01 21:26:00,
2013-02-01 15:31:00,15.6,-11.0,29.06,East,81,7.6,7.6,29,0.00,,OVC095,0.00,VWS V14.00,2013-02-01 21:31:00,
2013-02-01 15:36:00,15.4,-11.1,29.06,SE,142,4.0,10.5,29,0.00,,OVC095,0.00,VWS V14.00,2013-02-01 21:36:00,
2013-02-01 15:41:00,15.8,-10.8,29.06,East,93,3.1,5.4,29,0.00,,OVC095,0.00,VWS V14.00,2013-02-01 21:41:00,
2013-02-01 15:46:00,16.0,-11.4,29.06,East,85,3.1,5.8,28,0.00,,OVC095,0.00,VWS V14.00,2013-02-01 21:46:00,
2013-02-01 15:51:00,15.4,-11.1,29.06,ESE,121,5.4,6.7,29,0.00,,OVC095,0.00,VWS V14.00,2013-02-01 21:51:00,
2013-02-01 15:56:00,15.1,-11.4,29.03,East,99,3.6,8.1,29,0.00,,OVC095,0.00,VWS V14.00,2013-02-01 21:56:00,
2013-02-01 16:01:00,15.1,-10.1,29.03,East,99,3.1,5.4,31,0.00,,OVC100,0.00,VWS V14.00,2013-02-01 22:01:00,
2013-02-01 16:06:00,14.9,-10.3,29.03,East,96,3.6,7.6,31,0.00,,OVC100,0.00,VWS V14.00,2013-02-01 22:06:00,
2013-02-01 16:11:00,14.7,-10.4,29.03,ENE,71,5.4,8.1,31,0.00,,OVC100,0.00,VWS V14.00,2013-02-01 22:11:00,
2013-02-01 16:16:00,14.5,-10.6,29.03,SE,128,4.9,10.1,31,0.00,,OVC100,0.00,VWS V14.00,2013-02-01 22:16:00,
2013-02-01 16:21:00,14.7,-10.4,29.03,ESE,105,3.1,5.8,31,0.00,,OVC100,0.00,VWS V14.00,2013-02-01 22:21:00,
2013-02-01 16:26:00,14.7,-8.6,29.03,East,93,5.4,6.3,34,0.00,,OVC100,0.00,VWS V14.00,2013-02-01 22:26:00,
2013-02-01 16:31:00,14.9,-8.4,29.03,East,95,2.7,5.8,34,0.00,,OVC100,0.00,VWS V14.00,2013-02-01 22:31:00,
2013-02-01 16:36:00,14.7,-8.6,29.03,East,95,3.1,8.1,34,0.00,,OVC100,0.00,VWS V14.00,2013-02-01 22:36:00,
2013-02-01 16:41:00,14.5,-8.7,29.03,NE,44,3.6,6.3,34,0.00,,OVC100,0.00,VWS V14.00,2013-02-01 22:41:00,
2013-02-01 16:46:00,14.5,-8.7,29.03,ESE,113,2.7,7.6,34,0.00,,OVC100,0.00,VWS V14.00,2013-02-01 22:46:00,
2013-02-01 16:51:00,14.5,-8.7,29.03,NE,52,6.3,6.3,34,0.00,,OVC100,0.00,VWS V14.00,2013-02-01 22:51:00,
2013-02-01 16:56:00,14.7,-8.6,29.00,East,92,0.0,6.3,34,0.00,,OVC100,0.00,VWS V14.00,2013-02-01 22:56:00,
2013-02-01 17:01:00,14.9,-8.4,29.00,ESE,105,4.0,5.8,34,0.00,,OVC140,0.00,VWS V14.00,2013-02-01 23:01:00,
2013-02-01 17:06:00,14.9,-7.8,29.00,ENE,64,0.0,5.8,35,0.00,,OVC140,0.00,VWS V14.00,2013-02-01 23:06:00,
2013-02-01 17:11:00,14.9,-7.8,29.00,ENE,73,3.6,4.0,35,0.00,,OVC140,0.00,VWS V14.00,2013-02-01 23:11:00,
2013-02-01 17:16:00,14.9,-7.8,29.00,ENE,70,2.7,4.9,35,0.00,,OVC140,0.00,VWS V14.00,2013-02-01 23:16:00,
2013-02-01 17:21:00,14.9,-7.8,29.00,East,101,3.1,4.9,35,0.00,,OVC140,0.00,VWS V14.00,2013-02-01 23:21:00,
2013-02-01 17:26:00,14.9,-7.8,29.00,ESE,112,3.1,5.4,35,0.00,,OVC140,0.00,VWS V14.00,2013-02-01 23:26:00,
2013-02-01 17:32:00,14.9,-7.8,29.00,SE,128,4.0,5.8,35,0.00,,OVC140,0.00,VWS V14.00,2013-02-01 23:32:00,
2013-02-01 17:37:00,14.9,-7.2,29.00,ESE,103,3.6,5.8,36,0.00,,OVC140,0.00,VWS V14.00,2013-02-01 23:37:00,
2013-02-01 17:41:00,14.9,-7.2,29.00,East,90,3.6,4.9,36,0.00,,OVC140,0.00,VWS V14.00,2013-02-01 23:41:00,
2013-02-01 17:46:00,15.1,-7.1,29.00,ENE,72,0.0,5.8,36,0.00,,OVC140,0.00,VWS V14.00,2013-02-01 23:46:00,
2013-02-01 17:51:00,15.1,-7.1,29.00,ENE,71,2.7,6.3,36,0.00,,OVC140,0.00,VWS V14.00,2013-02-01 23:51:00,
2013-02-01 17:56:00,15.1,-7.1,28.97,ENE,57,2.7,6.3,36,0.00,,OVC140,0.00,VWS V14.00,2013-02-01 23:56:00,
2013-02-01 18:01:00,15.1,-6.5,28.97,ENE,72,2.7,4.0,37,0.00,,OVC100,0.00,VWS V14.00,2013-02-02 00:01:00,
2013-02-01 18:06:00,15.1,-6.5,28.97,East,99,4.5,5.4,37,0.00,,OVC100,0.00,VWS V14.00,2013-02-02 00:06:00,
2013-02-01 18:11:00,15.1,-6.5,28.97,ESE,103,3.6,5.4,37,0.00,,OVC100,0.00,VWS V14.00,2013-02-02 00:11:00,
2013-02-01 18:16:00,15.1,-6.5,28.97,ESE,118,2.7,5.8,37,0.00,,OVC100,0.00,VWS V14.00,2013-02-02 00:16:00,
2013-02-01 18:21:00,15.3,-6.3,28.97,East,99,4.0,5.4,37,0.00,,OVC100,0.00,VWS V14.00,2013-02-02 00:21:00,
2013-02-01 18:26:00,15.4,-6.2,28.97,East,84,4.0,5.8,37,0.00,,OVC100,0.00,VWS V14.00,2013-02-02 00:26:00,
2013-02-01 18:32:00,15.4,-6.2,28.97,SE,130,4.0,5.8,37,0.00,,OVC100,0.00,VWS V14.00,2013-02-02 00:32:00,
2013-02-01 18:37:00,15.4,-6.2,28.97,SE,127,6.7,6.7,37,0.00,,OVC100,0.00,VWS V14.00,2013-02-02 00:37:00,
2013-02-01 18:42:00,15.3,-5.8,28.97,ESE,116,3.1,8.7,38,0.00,,OVC100,0.00,VWS V14.00,2013-02-02 00:42:00,
2013-02-01 18:47:00,15.3,-5.8,28.97,East,88,8.1,8.7,38,0.00,,OVC100,0.00,VWS V14.00,2013-02-02 00:47:00,
2013-02-01 18:52:00,15.3,-5.8,28.97,ENE,77,6.3,6.3,38,0.00,,OVC100,0.00,VWS V14.00,2013-02-02 00:52:00,
2013-02-01 18:56:00,15.3,-5.2,28.94,East,100,8.3,8.3,39,0.00,,OVC100,0.00,VWS V14.00,2013-02-02 00:56:00,
2013-02-01 19:01:00,15.4,-5.1,28.94,ENE,73,3.1,7.2,39,0.00,,OVC150,0.00,VWS V14.00,2013-02-02 01:01:00,
2013-02-01 19:06:00,15.4,-5.1,28.94,East,100,3.6,8.3,39,0.00,,OVC150,0.00,VWS V14.00,2013-02-02 01:06:00,
2013-02-01 19:11:00,15.4,-5.1,28.94,ESE,120,3.1,5.4,39,0.00,,OVC150,0.00,VWS V14.00,2013-02-02 01:11:00,
2013-02-01 19:16:00,15.6,-4.9,28.94,SE,124,3.1,7.6,39,0.00,,OVC150,0.00,VWS V14.00,2013-02-02 01:16:00,
2013-02-01 19:21:00,15.6,-4.9,28.94,ESE,110,3.6,4.0,39,0.00,,OVC150,0.00,VWS V14.00,2013-02-02 01:21:00,
2013-02-01 19:26:00,15.8,-4.8,28.97,ESE,105,2.7,6.3,39,0.00,,OVC150,0.00,VWS V14.00,2013-02-02 01:26:00,
2013-02-01 19:31:00,16.0,-4.6,28.97,SE,130,0.0,5.8,39,0.00,,OVC150,0.00,VWS V14.00,2013-02-02 01:31:00,
2013-02-01 19:37:00,16.0,-4.6,28.97,SE,125,3.6,5.8,39,0.00,,OVC150,0.00,VWS V14.00,2013-02-02 01:37:00,
2013-02-01 19:41:00,16.3,-3.7,28.94,SE,141,0.0,4.9,40,0.00,,OVC150,0.00,VWS V14.00,2013-02-02 01:41:00,
2013-02-01 19:47:00,16.5,-3.6,28.94,East,88,2.7,4.9,40,0.00,,OVC150,0.00,VWS V14.00,2013-02-02 01:47:00,
2013-02-01 19:52:00,16.7,-3.9,28.94,ESE,108,3.6,4.0,39,0.00,,OVC150,0.00,VWS V14.00,2013-02-02 01:52:00,
2013-02-01 19:57:00,16.7,-3.4,28.94,ESE,104,3.6,5.8,40,0.00,,OVC150,0.00,VWS V14.00,2013-02-02 01:57:00,
2013-02-01 20:02:00,16.7,-3.4,28.94,East,97,2.7,5.8,40,0.00,,OVC180,0.00,VWS V14.00,2013-02-02 02:02:00,
2013-02-01 20:07:00,16.5,-3.6,28.94,East,82,2.7,5.8,40,0.00,,OVC180,0.00,VWS V14.00,2013-02-02 02:07:00,
2013-02-01 20:12:00,16.2,-3.4,28.94,ESE,120,4.0,5.8,41,0.00,,OVC180,0.00,VWS V14.00,2013-02-02 02:12:00,
2013-02-01 20:17:00,16.0,-2.6,28.94,SE,129,4.0,5.8,43,0.00,,OVC180,0.00,VWS V14.00,2013-02-02 02:17:00,
2013-02-01 20:22:00,16.0,-2.1,28.94,SE,133,4.9,4.9,44,0.00,,OVC180,0.00,VWS V14.00,2013-02-02 02:22:00,
2013-02-01 20:27:00,16.0,-2.1,28.91,SE,127,3.6,7.6,44,0.00,,OVC180,0.00,VWS V14.00,2013-02-02 02:27:00,
2013-02-01 20:32:00,16.0,-1.6,28.91,ESE,118,6.3,6.3,45,0.00,,OVC180,0.00,VWS V14.00,2013-02-02 02:32:00,
2013-02-01 20:36:00,16.5,-1.1,28.91,ESE,116,5.8,7.6,45,0.00,,OVC180,0.00,VWS V14.00,2013-02-02 02:36:00,
2013-02-01 20:41:00,16.9,-0.3,28.91,SSE,155,4.0,4.9,46,0.00,,OVC180,0.00,VWS V14.00,2013-02-02 02:41:00,
2013-02-01 20:46:00,17.8,0.5,28.91,ESE,123,8.1,8.1,46,0.00,,OVC180,0.00,VWS V14.00,2013-02-02 02:46:00,
2013-02-01 20:51:00,18.7,0.9,28.91,SE,125,5.4,8.3,45,0.00,,OVC180,0.00,VWS V14.00,2013-02-02 02:51:00,
2013-02-01 20:56:00,19.2,1.4,28.94,SE,146,8.1,10.5,45,0.00,,OVC180,0.00,VWS V14.00,2013-02-02 02:56:00,
2013-02-01 21:01:00,19.6,0.7,28.94,SSE,157,3.6,8.3,43,0.00,,SCT100,0.00,VWS V14.00,2013-02-02 03:01:00,
2013-02-01 21:06:00,19.6,0.7,28.94,SE,141,6.3,8.3,43,0.00,,SCT100,0.00,VWS V14.00,2013-02-02 03:06:00,
2013-02-01 21:11:00,19.8,1.4,28.91,SE,133,6.3,6.3,44,0.00,,SCT100,0.00,VWS V14.00,2013-02-02 03:11:00,
2013-02-01 21:16:00,20.1,1.2,28.91,SSE,160,8.1,11.0,43,0.00,,SCT100,0.00,VWS V14.00,2013-02-02 03:16:00,
2013-02-01 21:21:00,20.5,1.5,28.91,SSE,149,5.8,8.3,43,0.00,,SCT100,0.00,VWS V14.00,2013-02-02 03:21:00,
2013-02-01 21:26:00,20.8,1.9,28.91,SE,127,8.1,13.2,43,0.00,,SCT100,0.00,VWS V14.00,2013-02-02 03:26:00,
2013-02-01 21:31:00,21.0,2.0,28.91,SSE,153,6.3,10.1,43,0.00,,SCT100,0.00,VWS V14.00,2013-02-02 03:31:00,
2013-02-01 21:36:00,21.2,2.2,28.91,SE,138,4.0,10.5,43,0.00,,SCT100,0.00,VWS V14.00,2013-02-02 03:36:00,
2013-02-01 21:42:00,21.4,1.9,28.94,SSE,147,5.8,8.1,42,0.00,,SCT100,0.00,VWS V14.00,2013-02-02 03:42:00,
2013-02-01 21:47:00,21.7,2.2,28.94,SE,135,5.4,12.3,42,0.00,,SCT100,0.00,VWS V14.00,2013-02-02 03:47:00,
2013-02-01 21:52:00,21.9,2.4,28.94,SSE,152,6.3,10.5,42,0.00,,SCT100,0.00,VWS V14.00,2013-02-02 03:52:00,
2013-02-01 21:57:00,22.1,2.5,28.91,SE,146,5.8,10.5,42,0.00,,SCT100,0.00,VWS V14.00,2013-02-02 03:57:00,
2013-02-01 22:02:00,22.1,2.5,28.91,SE,131,5.8,9.2,42,0.00,,,0.00,VWS V14.00,2013-02-02 04:02:00,
2013-02-01 22:07:00,22.3,2.7,28.91,SE,124,4.0,9.2,42,0.00,,,0.00,VWS V14.00,2013-02-02 04:07:00,
2013-02-01 22:12:00,22.5,2.8,28.91,SSE,155,5.4,11.0,42,0.00,,,0.00,VWS V14.00,2013-02-02 04:12:00,
2013-02-01 22:17:00,22.6,3.0,28.91,SSE,149,7.6,11.0,42,0.00,,,0.00,VWS V14.00,2013-02-02 04:17:00,
2013-02-01 22:22:00,22.8,3.2,28.91,SE,130,5.8,9.6,42,0.00,,,0.00,VWS V14.00,2013-02-02 04:22:00,
2013-02-01 22:27:00,23.0,3.3,28.91,ESE,122,8.3,12.8,42,0.00,,,0.00,VWS V14.00,2013-02-02 04:27:00,
2013-02-01 22:32:00,23.0,2.8,28.91,ESE,123,3.1,10.1,41,0.00,,,0.00,VWS V14.00,2013-02-02 04:32:00,
2013-02-01 22:37:00,23.2,3.0,28.91,SE,129,5.8,11.0,41,0.00,,,0.00,VWS V14.00,2013-02-02 04:37:00,
2013-02-01 22:42:00,23.4,3.2,28.91,SSE,152,7.6,10.5,41,0.00,,,0.00,VWS V14.00,2013-02-02 04:42:00,
2013-02-01 22:47:00,23.5,2.8,28.91,SE,131,5.8,11.9,40,0.00,,,0.00,VWS V14.00,2013-02-02 04:47:00,
2013-02-01 22:52:00,23.7,2.4,28.91,SSE,149,5.8,11.0,39,0.00,,,0.00,VWS V14.00,2013-02-02 04:52:00,
2013-02-01 22:57:00,23.9,2.6,28.91,ESE,117,8.7,15.4,39,0.00,,,0.00,VWS V14.00,2013-02-02 04:57:00,
2013-02-01 23:00:00,23.9,2.0,28.91,SSE,151,12.8,15.4,38,0.00,,,0.00,VWS V14.00,2013-02-02 05:00:00,
2013-02-01 23:01:00,24.1,2.2,28.91,SE,140,8.1,10.5,38,0.00,,,0.00,VWS V14.00,2013-02-02 05:01:00,
2013-02-01 23:06:00,24.1,2.7,28.91,SSE,151,4.0,15.4,39,0.00,,,0.00,VWS V14.00,2013-02-02 05:06:00,
2013-02-01 23:11:00,24.1,2.7,28.91,SE,142,8.1,12.3,39,0.00,,,0.00,VWS V14.00,2013-02-02 05:11:00,
2013-02-01 23:16:00,24.3,2.3,28.91,SSE,166,8.1,13.6,38,0.00,,,0.00,VWS V14.00,2013-02-02 05:16:00,
2013-02-01 23:21:00,24.3,2.3,28.91,SSE,147,11.0,11.0,38,0.00,,,0.00,VWS V14.00,2013-02-02 05:21:00,
2013-02-01 23:26:00,24.4,2.5,28.91,SSE,150,5.8,15.4,38,0.00,,,0.00,VWS V14.00,2013-02-02 05:26:00,
2013-02-01 23:31:00,24.4,2.5,28.91,SSE,156,6.3,11.0,38,0.00,,,0.00,VWS V14.00,2013-02-02 05:31:00,
2013-02-01 23:36:00,24.4,2.5,28.91,ESE,118,5.8,13.2,38,0.00,,,0.00,VWS V14.00,2013-02-02 05:36:00,
2013-02-01 23:41:00,24.4,2.5,28.91,SSE,158,5.4,8.3,38,0.00,,,0.00,VWS V14.00,2013-02-02 05:41:00,
2013-02-01 23:46:00,24.4,2.5,28.91,SE,142,5.8,10.1,38,0.00,,,0.00,VWS V14.00,2013-02-02 05:46:00,
2013-02-01 23:51:00,24.4,2.5,28.91,SSE,156,6.3,10.5,38,0.00,,,0.00,VWS V14.00,2013-02-02 05:51:00,
2013-02-01 23:56:00,23.9,2.6,28.88,SSE,167,3.6,10.5,39,0.00,,,0.00,VWS V14.00,2013-02-02 05:56:00,